createdAt,value
2023-03-16T00:02:03.687Z,1.10
2023-03-16T00:04:30.685Z,0.95
2023-03-16T00:06:57.468Z,0.80
2023-03-16T00:09:30.970Z,0.80
2023-03-16T00:11:58.753Z,1.15
2023-03-16T00:14:25.526Z,0.90
2023-03-16T00:16:52.045Z,0.90
2023-03-16T00:19:18.445Z,0.88
2023-03-16T00:21:44.873Z,1.05
2023-03-16T00:24:12.847Z,0.73
2023-03-16T00:26:39.220Z,0.60
2023-03-16T00:29:05.588Z,0.65
2023-03-16T00:31:33.874Z,0.68
2023-03-16T00:34:03.098Z,0.40
2023-03-16T00:36:30.385Z,0.30
2023-03-16T00:38:56.765Z,0.50
2023-03-16T00:41:23.219Z,0.50
2023-03-16T00:43:51.745Z,0.30
2023-03-16T00:46:18.468Z,0.30
2023-03-16T00:48:46.200Z,0.32
2023-03-16T00:51:14.918Z,0.20
2023-03-16T00:53:42.259Z,0.30
2023-03-16T00:56:09.509Z,0.30
2023-03-16T00:58:36.934Z,0.20
2023-03-16T01:01:07.626Z,0.40
2023-03-16T01:03:34.672Z,0.30
2023-03-16T01:06:06.388Z,0.28
2023-03-16T01:08:33.222Z,0.30
2023-03-16T01:11:03.845Z,0.40
2023-03-16T01:13:32.575Z,0.40
2023-03-16T01:15:59.589Z,0.20
2023-03-16T01:18:26.829Z,0.38
2023-03-16T01:20:53.530Z,0.30
2023-03-16T01:23:22.728Z,0.25
2023-03-16T01:25:53.234Z,0.28
2023-03-16T01:28:24.643Z,0.35
2023-03-16T01:30:54.280Z,0.20
2023-03-16T01:33:24.779Z,0.20
2023-03-16T01:35:55.171Z,0.30
2023-03-16T01:38:21.989Z,0.40
2023-03-16T01:40:51.401Z,0.55
2023-03-16T01:43:19.006Z,0.60
2023-03-16T01:46:04.477Z,0.60
2023-03-16T01:48:49.511Z,0.40
2023-03-16T01:51:21.298Z,0.40
2023-03-16T01:53:49.996Z,0.40
2023-03-16T01:56:18.888Z,0.60
2023-03-16T01:58:45.871Z,0.45
2023-03-16T02:01:14.009Z,0.50
2023-03-16T02:03:41.763Z,0.45
2023-03-16T02:06:08.168Z,0.50
2023-03-16T02:08:35.144Z,0.50
2023-03-16T02:11:01.829Z,0.45
2023-03-16T02:13:29.694Z,0.38
2023-03-16T02:15:56.257Z,0.50
2023-03-16T02:18:23.125Z,0.63
2023-03-16T02:20:58.643Z,0.60
2023-03-16T02:23:25.415Z,1.02
2023-03-16T02:25:55.115Z,1.45
2023-03-16T02:28:25.216Z,0.98
2023-03-16T02:30:51.807Z,1.00
2023-03-16T02:33:19.539Z,1.35
2023-03-16T02:35:46.019Z,1.20
2023-03-16T02:38:12.478Z,1.23
2023-03-16T02:40:38.909Z,1.10
2023-03-16T02:43:07.870Z,1.33
2023-03-16T02:45:45.897Z,1.60
2023-03-16T02:48:23.616Z,1.00
2023-03-16T02:50:51.440Z,1.10
2023-03-16T02:53:18.254Z,1.73
2023-03-16T02:55:45.885Z,1.13
2023-03-16T02:58:12.732Z,0.90
2023-03-16T03:00:39.620Z,1.08
2023-03-16T03:03:08.259Z,1.10
2023-03-16T03:05:35.146Z,1.00
2023-03-16T03:08:01.673Z,1.10
2023-03-16T03:10:28.692Z,1.23
2023-03-16T03:12:55.385Z,0.75
2023-03-16T03:15:21.898Z,0.88
2023-03-16T03:17:48.414Z,1.30
2023-03-16T03:20:16.961Z,0.82
2023-03-16T03:22:45.145Z,0.85
2023-03-16T03:25:12.473Z,0.77
2023-03-16T03:27:38.878Z,1.15
2023-03-16T03:30:07.013Z,0.90
2023-03-16T03:32:33.471Z,1.10
2023-03-16T03:34:59.876Z,0.90
2023-03-16T03:37:26.384Z,1.35
2023-03-16T03:39:53.557Z,0.85
2023-03-16T03:42:20.035Z,1.10
2023-03-16T03:44:46.424Z,0.70
2023-03-16T03:47:12.930Z,0.98
2023-03-16T03:49:39.383Z,0.90
2023-03-16T03:52:05.913Z,0.95
2023-03-16T03:54:32.402Z,1.17
2023-03-16T03:56:58.844Z,0.80
2023-03-16T03:59:25.220Z,0.82
2023-03-16T04:01:53.853Z,1.45
2023-03-16T04:04:20.765Z,1.20
2023-03-16T04:06:47.156Z,1.00
2023-03-16T04:09:13.639Z,0.82
2023-03-16T04:11:40.132Z,1.08
2023-03-16T04:14:06.731Z,1.20
2023-03-16T04:16:34.061Z,0.85
2023-03-16T04:19:01.684Z,0.70
2023-03-16T04:21:28.528Z,0.98
2023-03-16T04:23:55.000Z,0.80
2023-03-16T04:26:21.687Z,0.90
2023-03-16T04:28:48.116Z,1.13
2023-03-16T04:31:14.671Z,0.77
2023-03-16T04:33:42.367Z,1.30
2023-03-16T04:36:09.269Z,1.50
2023-03-16T04:38:36.145Z,1.10
2023-03-16T04:41:03.269Z,0.95
2023-03-16T04:43:29.935Z,1.33
2023-03-16T04:45:56.434Z,1.00
2023-03-16T04:48:22.858Z,0.98
2023-03-16T04:50:50.535Z,1.20
2023-03-16T04:53:17.151Z,1.20
2023-03-16T04:55:44.833Z,0.73
2023-03-16T04:58:11.336Z,0.88
2023-03-16T05:00:37.811Z,0.93
2023-03-16T05:03:04.470Z,1.27
2023-03-16T05:05:31.246Z,1.23
2023-03-16T05:07:57.723Z,1.00
2023-03-16T05:10:24.221Z,1.00
2023-03-16T05:12:50.657Z,0.80
2023-03-16T05:15:18.628Z,0.82
2023-03-16T05:17:46.724Z,1.30
2023-03-16T05:20:16.615Z,1.30
2023-03-16T05:22:44.376Z,1.13
2023-03-16T05:25:14.928Z,0.88
2023-03-16T05:27:45.526Z,0.70
2023-03-16T05:30:12.786Z,0.80
2023-03-16T05:32:39.274Z,1.67
2023-03-16T05:35:06.279Z,1.50
2023-03-16T05:37:32.848Z,0.88
2023-03-16T05:39:59.239Z,1.10
2023-03-16T05:42:27.095Z,0.85
2023-03-16T05:44:54.113Z,1.23
2023-03-16T05:47:20.888Z,1.20
2023-03-16T05:49:47.423Z,1.17
2023-03-16T05:52:13.914Z,1.30
2023-03-16T05:54:40.392Z,1.20
2023-03-16T05:57:07.172Z,0.80
2023-03-16T05:59:33.729Z,1.00
2023-03-16T06:02:00.144Z,0.93
2023-03-16T06:04:27.071Z,1.05
2023-03-16T06:06:53.580Z,1.17
2023-03-16T06:09:19.967Z,1.08
2023-03-16T06:11:46.417Z,1.33
2023-03-16T06:14:12.830Z,1.58
2023-03-16T06:16:39.332Z,1.50
2023-03-16T06:19:05.812Z,1.23
2023-03-16T06:21:32.249Z,1.63
2023-03-16T06:23:58.664Z,1.30
2023-03-16T06:26:25.109Z,1.65
2023-03-16T06:28:51.490Z,1.70
2023-03-16T06:31:17.880Z,1.88
2023-03-16T06:33:44.411Z,1.50
2023-03-16T06:36:11.933Z,1.77
2023-03-16T06:38:38.496Z,2.25
2023-03-16T06:41:05.425Z,2.42
2023-03-16T06:43:31.822Z,2.72
2023-03-16T06:45:58.949Z,2.60
2023-03-16T06:48:25.394Z,2.72
2023-03-16T06:50:51.809Z,2.50
2023-03-16T06:53:18.208Z,2.40
2023-03-16T06:55:44.598Z,2.10
2023-03-16T06:58:11.809Z,2.33
2023-03-16T07:00:38.212Z,2.38
2023-03-16T07:03:04.682Z,2.33
2023-03-16T07:05:31.584Z,2.33
2023-03-16T07:07:58.271Z,2.25
2023-03-16T07:10:25.399Z,2.00
2023-03-16T07:12:51.791Z,2.58
2023-03-16T07:15:19.054Z,2.25
2023-03-16T07:17:45.448Z,2.35
2023-03-16T07:20:12.927Z,2.10
2023-03-16T07:22:39.764Z,2.20
2023-03-16T07:25:07.124Z,2.08
2023-03-16T07:27:33.830Z,1.98
2023-03-16T07:30:00.507Z,1.90
2023-03-16T07:32:27.025Z,1.98
2023-03-16T07:34:53.679Z,1.80
2023-03-16T07:37:25.386Z,2.08
2023-03-16T07:39:52.101Z,2.60
2023-03-16T07:42:19.815Z,1.98
2023-03-16T07:44:46.168Z,2.03
2023-03-16T07:47:13.165Z,2.65
2023-03-16T07:49:41.487Z,1.80
2023-03-16T07:52:08.012Z,1.83
2023-03-16T07:54:34.502Z,2.15
2023-03-16T07:57:01.302Z,1.90
2023-03-16T07:59:27.751Z,1.98
2023-03-16T08:01:54.213Z,2.42
2023-03-16T08:04:20.645Z,1.83
2023-03-16T08:06:47.928Z,2.47
2023-03-16T08:09:14.516Z,2.35
2023-03-16T08:11:41.604Z,1.90
2023-03-16T08:14:08.046Z,1.75
2023-03-16T08:16:35.549Z,2.10
2023-03-16T08:19:02.520Z,2.35
2023-03-16T08:21:30.247Z,2.00
2023-03-16T08:23:56.873Z,1.83
2023-03-16T08:26:23.359Z,1.88
2023-03-16T08:28:52.029Z,2.05
2023-03-16T08:31:19.559Z,1.63
2023-03-16T08:33:47.009Z,2.20
2023-03-16T08:36:15.503Z,2.38
2023-03-16T08:38:44.133Z,2.10
2023-03-16T08:41:12.592Z,2.17
2023-03-16T08:43:39.018Z,2.38
2023-03-16T08:46:05.704Z,2.50
2023-03-16T08:48:33.624Z,2.33
2023-03-16T08:51:03.710Z,1.90
2023-03-16T08:53:30.694Z,1.92
2023-03-16T08:56:08.292Z,2.20
2023-03-16T08:58:35.378Z,1.75
2023-03-16T09:01:02.433Z,2.38
2023-03-16T09:03:28.920Z,2.20
2023-03-16T09:06:00.840Z,1.95
2023-03-16T09:08:27.396Z,2.35
2023-03-16T09:10:59.149Z,2.45
2023-03-16T09:13:26.024Z,2.28
2023-03-16T09:15:52.457Z,2.33
2023-03-16T09:18:19.660Z,2.00
2023-03-16T09:20:47.882Z,2.33
2023-03-16T09:23:14.266Z,2.20
2023-03-16T09:25:40.691Z,1.90
2023-03-16T09:28:07.117Z,2.33
2023-03-16T09:30:34.575Z,1.88
2023-03-16T09:33:01.032Z,2.33
2023-03-16T09:35:27.741Z,1.63
2023-03-16T09:38:09.603Z,1.67
2023-03-16T09:40:37.107Z,1.73
2023-03-16T09:43:15.774Z,1.20
2023-03-16T09:45:48.116Z,1.00
2023-03-16T09:48:15.395Z,1.25
2023-03-16T09:50:48.880Z,1.40
2023-03-16T09:53:15.995Z,1.60
2023-03-16T09:55:45.197Z,0.95
2023-03-16T09:58:19.209Z,0.90
2023-03-16T10:00:45.632Z,1.33
2023-03-16T10:03:30.890Z,1.10
2023-03-16T10:05:59.698Z,0.90
2023-03-16T10:08:28.648Z,1.17
2023-03-16T10:11:13.695Z,0.90
2023-03-16T10:13:44.579Z,1.15
2023-03-16T10:16:14.205Z,1.20
2023-03-16T10:18:45.016Z,0.90
2023-03-16T10:21:13.228Z,1.25
2023-03-16T10:23:40.956Z,0.98
2023-03-16T10:26:13.361Z,1.10
2023-03-16T10:28:39.781Z,1.20
2023-03-16T10:31:06.273Z,1.13
2023-03-16T10:33:33.815Z,1.10
2023-03-16T10:36:05.751Z,1.10
2023-03-16T10:38:40.973Z,0.90
2023-03-16T10:41:22.733Z,0.93
2023-03-16T10:43:51.036Z,0.98
2023-03-16T10:46:18.003Z,1.02
2023-03-16T10:48:54.869Z,1.10
2023-03-16T10:51:25.405Z,1.42
2023-03-16T10:53:52.228Z,1.20
2023-03-16T10:56:20.849Z,1.10
2023-03-16T10:58:47.299Z,1.30
2023-03-16T11:01:23.815Z,1.10
2023-03-16T11:03:51.734Z,0.93
2023-03-16T11:06:20.689Z,0.93
2023-03-16T11:08:47.885Z,1.00
2023-03-16T11:11:16.766Z,1.08
2023-03-16T11:13:45.031Z,1.13
2023-03-16T11:16:21.549Z,1.00
2023-03-16T11:18:50.841Z,1.35
2023-03-16T11:21:36.421Z,0.70
2023-03-16T11:24:04.308Z,0.90
2023-03-16T11:26:35.074Z,0.70
2023-03-16T11:29:21.771Z,0.90
2023-03-16T11:31:51.066Z,1.13
2023-03-16T11:36:44.544Z,0.85
2023-03-16T11:39:14.137Z,0.90
2023-03-16T11:41:47.021Z,1.10
2023-03-16T11:44:23.622Z,0.93
2023-03-16T11:46:56.513Z,0.90
2023-03-16T11:49:35.226Z,0.77
2023-03-16T11:52:15.493Z,1.42
2023-03-16T11:54:45.159Z,1.08
2023-03-16T11:57:30.764Z,0.80
2023-03-16T12:00:02.682Z,0.80
2023-03-16T12:02:29.278Z,0.80
2023-03-16T12:05:10.509Z,0.70
2023-03-16T12:07:59.982Z,0.80
2023-03-16T12:10:31.909Z,0.63
2023-03-16T12:13:16.673Z,0.63
2023-03-16T12:15:50.020Z,0.90
2023-03-16T12:18:16.622Z,0.75
2023-03-16T12:20:47.513Z,0.90
2023-03-16T12:23:15.736Z,0.70
2023-03-16T12:25:45.986Z,0.68
2023-03-16T12:28:24.571Z,0.95
2023-03-16T12:30:50.955Z,0.80
2023-03-16T12:33:20.868Z,0.90
2023-03-16T12:36:19.687Z,0.75
2023-03-16T12:38:53.559Z,0.70
2023-03-16T12:41:25.682Z,0.75
2023-03-16T12:44:04.341Z,0.52
2023-03-16T12:46:30.850Z,1.13
2023-03-16T12:48:58.852Z,0.98
2023-03-16T12:51:35.790Z,0.68
2023-03-16T12:54:02.549Z,0.90
2023-03-16T12:56:32.063Z,0.70
2023-03-16T12:59:00.394Z,0.65
2023-03-16T13:01:28.969Z,0.70
2023-03-16T13:04:00.377Z,0.82
2023-03-16T13:06:30.875Z,0.73
2023-03-16T13:09:01.421Z,0.70
2023-03-16T13:11:28.665Z,1.10
2023-03-16T13:14:01.133Z,1.25
2023-03-16T13:16:29.220Z,1.00
2023-03-16T13:18:56.574Z,1.20
2023-03-16T13:21:26.047Z,1.10
2023-03-16T13:23:54.530Z,1.33
2023-03-16T13:26:53.632Z,0.98
2023-03-16T13:29:27.540Z,1.05
2023-03-16T13:31:58.075Z,1.13
2023-03-16T13:34:29.732Z,1.10
2023-03-16T13:36:57.534Z,0.90
2023-03-16T13:39:27.473Z,1.13
2023-03-16T13:42:00.044Z,1.00
2023-03-16T13:44:28.054Z,1.15
2023-03-16T13:46:54.798Z,0.60
2023-03-16T13:49:21.320Z,1.05
2023-03-16T13:51:48.546Z,1.52
2023-03-16T13:54:23.868Z,0.98
2023-03-16T13:56:51.595Z,0.73
2023-03-16T13:59:18.715Z,1.00
2023-03-16T14:01:46.552Z,1.05
2023-03-16T14:04:18.816Z,0.60
2023-03-16T14:07:11.489Z,1.05
2023-03-16T14:09:38.261Z,0.90
2023-03-16T14:12:04.894Z,0.60
2023-03-16T14:14:37.002Z,0.63
2023-03-16T14:17:08.336Z,0.90
2023-03-16T14:19:42.519Z,0.40
2023-03-16T14:22:16.463Z,0.80
2023-03-16T14:24:44.464Z,0.80
2023-03-16T14:27:17.012Z,1.00
2023-03-16T14:29:43.790Z,0.70
2023-03-16T14:32:29.186Z,0.70
2023-03-16T14:35:14.739Z,0.70
2023-03-16T14:37:41.966Z,0.57
2023-03-16T14:40:20.957Z,0.85
2023-03-16T14:42:47.552Z,0.80
2023-03-16T14:45:15.584Z,0.70
2023-03-16T14:47:43.045Z,0.70
2023-03-16T14:50:14.323Z,0.80
2023-03-16T14:52:41.361Z,0.55
2023-03-16T14:55:15.919Z,0.60
2023-03-16T14:57:42.777Z,0.90
2023-03-16T15:00:12.089Z,0.65
2023-03-16T15:05:05.219Z,1.10
2023-03-16T15:07:34.578Z,0.50
2023-03-16T15:12:27.393Z,0.43
2023-03-16T15:15:12.920Z,0.50
2023-03-16T15:17:39.355Z,0.63
2023-03-16T15:20:07.243Z,0.80
2023-03-16T15:22:35.578Z,0.70
2023-03-16T15:25:11.131Z,0.60
2023-03-16T15:27:37.958Z,0.68
2023-03-16T15:30:06.985Z,0.47
2023-03-16T15:32:33.446Z,0.77
2023-03-16T15:34:59.975Z,0.82
2023-03-16T15:37:27.869Z,0.55
2023-03-16T15:39:54.801Z,0.70
2023-03-16T15:42:21.321Z,0.65
2023-03-16T15:44:48.381Z,0.98
2023-03-16T15:47:15.666Z,0.60
2023-03-16T15:49:47.743Z,0.60
2023-03-16T15:52:34.888Z,0.60
2023-03-16T15:55:04.637Z,1.30
2023-03-16T15:57:31.596Z,0.80
2023-03-16T15:59:59.153Z,0.60
2023-03-16T16:02:28.165Z,0.45
2023-03-16T16:04:54.929Z,0.50
2023-03-16T16:07:21.334Z,0.60
2023-03-16T16:09:47.976Z,0.60
2023-03-16T16:12:14.771Z,0.50
2023-03-16T16:14:41.478Z,0.57
2023-03-16T16:17:12.146Z,0.50
2023-03-16T16:19:39.264Z,0.52
2023-03-16T16:22:06.849Z,0.68
2023-03-16T16:24:34.436Z,0.50
2023-03-16T16:27:00.854Z,0.50
2023-03-16T16:29:30.645Z,0.55
2023-03-16T16:31:57.300Z,0.60
2023-03-16T16:34:25.096Z,0.68
2023-03-16T16:36:52.251Z,0.60
2023-03-16T16:39:18.724Z,0.57
2023-03-16T16:41:45.387Z,0.60
2023-03-16T16:44:23.672Z,0.65
2023-03-16T16:46:50.820Z,0.50
2023-03-16T16:49:23.889Z,1.13
2023-03-16T16:51:51.409Z,0.70
2023-03-16T16:54:18.797Z,0.70
2023-03-16T16:56:46.595Z,0.55
2023-03-16T16:59:15.959Z,0.57
2023-03-16T17:01:42.568Z,0.93
2023-03-16T17:04:16.873Z,0.55
2023-03-16T17:06:44.053Z,0.85
2023-03-16T17:09:10.764Z,0.60
2023-03-16T17:11:37.451Z,0.65
2023-03-16T17:14:05.009Z,0.50
2023-03-16T17:16:32.977Z,0.55
2023-03-16T17:18:59.498Z,0.63
2023-03-16T17:21:28.189Z,0.40
2023-03-16T17:23:54.612Z,0.67
2023-03-16T17:26:23.424Z,0.60
2023-03-16T17:28:52.229Z,0.80
2023-03-16T17:31:23.665Z,0.57
2023-03-16T17:33:52.307Z,0.52
2023-03-16T17:36:19.646Z,0.40
2023-03-16T17:38:46.643Z,0.50
2023-03-16T17:41:27.082Z,0.93
2023-03-16T17:43:54.987Z,0.45
2023-03-16T17:46:23.968Z,0.65
2023-03-16T17:48:51.826Z,0.63
2023-03-16T17:51:19.081Z,0.80
2023-03-16T17:53:45.586Z,0.70
2023-03-16T17:56:22.462Z,0.60
2023-03-16T17:58:51.179Z,0.57
2023-03-16T18:01:18.158Z,0.50
2023-03-16T18:03:46.133Z,0.60
2023-03-16T18:06:17.873Z,0.93
2023-03-16T18:08:46.735Z,0.70
2023-03-16T18:11:17.336Z,0.77
2023-03-16T18:13:44.293Z,1.33
2023-03-16T18:16:15.004Z,1.10
2023-03-16T18:18:42.893Z,0.82
2023-03-16T18:21:19.323Z,1.30
2023-03-16T18:23:46.414Z,1.10
2023-03-16T18:26:12.886Z,1.35
2023-03-16T18:28:39.582Z,1.02
2023-03-16T18:31:07.797Z,0.73
2023-03-16T18:33:36.370Z,0.80
2023-03-16T18:36:04.911Z,0.70
2023-03-16T18:38:42.630Z,0.83
2023-03-16T18:41:15.948Z,0.90
2023-03-16T18:43:42.648Z,0.75
2023-03-16T18:46:26.188Z,1.25
2023-03-16T18:48:54.346Z,1.00
2023-03-16T18:51:21.690Z,0.80
2023-03-16T18:53:48.508Z,0.80
2023-03-16T18:56:22.779Z,0.77
2023-03-16T18:58:49.711Z,0.93
2023-03-16T19:01:22.335Z,0.80
2023-03-16T19:03:49.719Z,0.77
2023-03-16T19:06:19.931Z,0.70
2023-03-16T19:08:46.352Z,0.75
2023-03-16T19:11:13.281Z,0.80
2023-03-16T19:13:39.910Z,0.50
2023-03-16T19:16:09.152Z,0.65
2023-03-16T19:18:44.674Z,0.75
2023-03-16T19:21:23.026Z,0.52
2023-03-16T19:23:55.294Z,0.70
2023-03-16T19:26:21.726Z,0.70
2023-03-16T19:28:48.429Z,0.77
2023-03-16T19:31:28.210Z,0.45
2023-03-16T19:33:55.081Z,0.63
2023-03-16T19:36:22.996Z,0.45
2023-03-16T19:38:52.681Z,0.80
2023-03-16T19:41:39.356Z,0.77
2023-03-16T19:44:08.448Z,0.50
2023-03-16T19:46:35.036Z,0.60
2023-03-16T19:49:01.601Z,0.50
2023-03-16T19:51:36.795Z,0.75
2023-03-16T19:54:03.483Z,0.50
2023-03-16T19:56:30.267Z,0.70
2023-03-16T19:58:56.689Z,6.43
2023-03-16T20:01:32.284Z,3.80
2023-03-16T20:03:59.788Z,1.90
2023-03-16T20:06:26.606Z,0.98
2023-03-16T20:08:53.121Z,0.90
2023-03-16T20:11:19.606Z,0.80
2023-03-16T20:13:46.972Z,0.80
2023-03-16T20:16:21.658Z,0.80
2023-03-16T20:18:49.255Z,0.77
2023-03-16T20:21:16.874Z,0.52
2023-03-16T20:23:43.521Z,0.70
2023-03-16T20:26:21.090Z,0.47
2023-03-16T20:28:48.615Z,0.60
2023-03-16T20:31:22.714Z,0.47
2023-03-16T20:33:50.473Z,0.70
2023-03-16T20:36:17.379Z,0.70
2023-03-16T20:38:44.117Z,0.60
2023-03-16T20:41:13.298Z,0.70
2023-03-16T20:43:40.711Z,0.52
2023-03-16T20:46:07.260Z,0.50
2023-03-16T20:48:34.206Z,0.50
2023-03-16T20:51:00.737Z,0.60
2023-03-16T20:53:27.685Z,0.60
2023-03-16T20:55:54.778Z,0.50
2023-03-16T20:58:22.853Z,0.70
2023-03-16T21:00:52.235Z,0.40
2023-03-16T21:03:23.267Z,0.60
2023-03-16T21:05:50.909Z,0.60
2023-03-16T21:08:17.338Z,1.30
2023-03-16T21:10:45.129Z,0.60
2023-03-16T21:13:17.330Z,0.57
2023-03-16T21:15:44.763Z,0.60
2023-03-16T21:18:15.203Z,0.60
2023-03-16T21:20:41.688Z,0.60
2023-03-16T21:23:15.850Z,0.63
2023-03-16T21:25:44.862Z,0.68
2023-03-16T21:28:12.021Z,0.63
2023-03-16T21:30:39.688Z,0.50
2023-03-16T21:33:18.265Z,0.40
2023-03-16T21:35:44.739Z,0.73
2023-03-16T21:38:15.622Z,0.70
2023-03-16T21:40:42.216Z,0.90
2023-03-16T21:43:11.731Z,0.80
2023-03-16T21:45:38.588Z,0.90
2023-03-16T21:48:05.287Z,0.70
2023-03-16T21:50:33.376Z,1.10
2023-03-16T21:52:59.867Z,0.80
2023-03-16T21:55:27.980Z,1.00
2023-03-16T21:57:54.540Z,0.90
2023-03-16T22:00:25.726Z,0.75
2023-03-16T22:02:53.557Z,0.77
2023-03-16T22:05:23.078Z,0.93
2023-03-16T22:07:49.490Z,0.88
2023-03-16T22:10:16.035Z,1.10
2023-03-16T22:12:42.862Z,1.23
2023-03-16T22:15:09.503Z,0.80
2023-03-16T22:17:36.682Z,0.80
2023-03-16T22:20:03.947Z,0.80
2023-03-16T22:22:32.336Z,1.50
2023-03-16T22:24:58.749Z,1.70
2023-03-16T22:27:26.462Z,0.75
2023-03-16T22:29:52.813Z,1.02
2023-03-16T22:32:20.752Z,1.13
2023-03-16T22:34:47.357Z,0.98
2023-03-16T22:37:16.548Z,1.10
2023-03-16T22:39:43.121Z,1.05
2023-03-16T22:42:31.956Z,0.85
2023-03-16T22:44:58.347Z,1.77
2023-03-16T22:47:26.628Z,1.17
2023-03-16T22:49:53.792Z,1.15
2023-03-16T22:52:21.849Z,1.25
2023-03-16T22:54:48.237Z,1.08
2023-03-16T22:57:16.316Z,0.95
2023-03-16T22:59:43.939Z,1.20
2023-03-16T23:02:13.770Z,1.13
2023-03-16T23:04:40.368Z,1.00
2023-03-16T23:07:13.401Z,1.38
2023-03-16T23:09:39.999Z,0.90
2023-03-16T23:12:24.620Z,1.15
2023-03-16T23:14:51.150Z,1.20
2023-03-16T23:17:22.219Z,1.02
2023-03-16T23:19:48.992Z,1.23
2023-03-16T23:22:15.585Z,0.98
2023-03-16T23:24:42.423Z,0.93
2023-03-16T23:27:17.486Z,1.60
2023-03-16T23:29:44.249Z,1.20
2023-03-16T23:32:11.352Z,1.02
2023-03-16T23:34:37.793Z,1.10
2023-03-16T23:37:04.336Z,0.90
2023-03-16T23:39:30.854Z,1.48
2023-03-16T23:41:57.473Z,1.50
2023-03-16T23:44:26.370Z,1.30
2023-03-16T23:46:52.747Z,1.75
2023-03-16T23:49:21.628Z,1.50
2023-03-16T23:51:48.122Z,1.40
2023-03-16T23:54:24.938Z,0.93
2023-03-16T23:56:51.498Z,0.90
2023-03-16T23:59:19.250Z,1.00
